sensor_id;sensor_type;location;lat;lon;timestamp;temperature;humidity
1592;DHT22;789;51.612;7.510;2024-01-10T00:01:36;-2.30;1.00
1592;DHT22;789;51.612;7.510;2024-01-10T00:04:02;-2.30;1.00
1592;DHT22;789;51.612;7.510;2024-01-10T00:06:29;-2.20;1.00
1592;DHT22;789;51.612;7.510;2024-01-10T00:08:56;-2.20;1.00
1592;DHT22;789;51.612;7.510;2024-01-10T00:11:24;-2.20;1.00
1592;DHT22;789;51.612;7.510;2024-01-10T00:13:51;-2.00;1.00
1592;DHT22;789;51.612;7.510;2024-01-10T00:16:17;-2.20;1.00
1592;DHT22;789;51.612;7.510;2024-01-10T00:18:44;-2.30;1.00
1592;DHT22;789;51.612;7.510;2024-01-10T00:21:11;-2.30;1.00
1592;DHT22;789;51.612;7.510;2024-01-10T00:23:38;-2.40;1.00
1592;DHT22;789;51.612;7.510;2024-01-10T00:26:04;-2.50;1.00
1592;DHT22;789;51.612;7.510;2024-01-10T00:28:32;-2.50;1.00
1592;DHT22;789;51.612;7.510;2024-01-10T00:30:59;-2.60;1.00
1592;DHT22;789;51.612;7.510;2024-01-10T00:33:26;-2.70;1.00
1592;DHT22;789;51.612;7.510;2024-01-10T00:35:53;-2.70;1.00
1592;DHT22;789;51.612;7.510;2024-01-10T00:38:19;-2.70;1.00
1592;DHT22;789;51.612;7.510;2024-01-10T00:40:46;-2.40;1.00
1592;DHT22;789;51.612;7.510;2024-01-10T00:43:13;-2.70;1.00
1592;DHT22;789;51.612;7.510;2024-01-10T00:45:41;-2.80;1.00
1592;DHT22;789;51.612;7.510;2024-01-10T00:48:08;-2.80;1.00
1592;DHT22;789;51.612;7.510;2024-01-10T00:50:34;-2.80;1.00
1592;DHT22;789;51.612;7.510;2024-01-10T00:53:01;-2.80;1.00
1592;DHT22;789;51.612;7.510;2024-01-10T00:55:28;-2.80;1.00
1592;DHT22;789;51.612;7.510;2024-01-10T00:57:55;-2.80;1.00
1592;DHT22;789;51.612;7.510;2024-01-10T01:00:22;-2.80;1.00
1592;DHT22;789;51.612;7.510;2024-01-10T01:02:50;-2.80;1.00
1592;DHT22;789;51.612;7.510;2024-01-10T01:05:16;-2.70;1.00
1592;DHT22;789;51.612;7.510;2024-01-10T01:07:43;-2.80;1.00
1592;DHT22;789;51.612;7.510;2024-01-10T01:10:10;-2.90;1.00
1592;DHT22;789;51.612;7.510;2024-01-10T01:12:37;-2.90;1.00
1592;DHT22;789;51.612;7.510;2024-01-10T01:15:05;-2.90;1.00
1592;DHT22;789;51.612;7.510;2024-01-10T01:17:32;-2.90;1.00
1592;DHT22;789;51.612;7.510;2024-01-10T01:20:02;-2.90;1.00
1592;DHT22;789;51.612;7.510;2024-01-10T01:22:30;-3.00;1.00
1592;DHT22;789;51.612;7.510;2024-01-10T01:24:57;-3.00;1.00
1592;DHT22;789;51.612;7.510;2024-01-10T01:27:24;-3.00;1.00
1592;DHT22;789;51.612;7.510;2024-01-10T01:29:50;-3.10;1.00
1592;DHT22;789;51.612;7.510;2024-01-10T01:32:17;-3.10;1.00
1592;DHT22;789;51.612;7.510;2024-01-10T01:34:44;-3.10;1.00
1592;DHT22;789;51.612;7.510;2024-01-10T01:37:12;-3.10;1.00
1592;DHT22;789;51.612;7.510;2024-01-10T01:39:38;-3.10;1.00
1592;DHT22;789;51.612;7.510;2024-01-10T01:42:05;-2.90;1.00
1592;DHT22;789;51.612;7.510;2024-01-10T01:44:32;-3.10;1.00
1592;DHT22;789;51.612;7.510;2024-01-10T01:46:59;-3.10;1.00
1592;DHT22;789;51.612;7.510;2024-01-10T01:49:25;-3.10;1.00
1592;DHT22;789;51.612;7.510;2024-01-10T01:51:52;-3.00;1.00
1592;DHT22;789;51.612;7.510;2024-01-10T01:54:21;-3.10;1.00
1592;DHT22;789;51.612;7.510;2024-01-10T01:56:48;-3.00;1.00
1592;DHT22;789;51.612;7.510;2024-01-10T01:59:15;-3.10;1.00
1592;DHT22;789;51.612;7.510;2024-01-10T02:01:42;-3.20;1.00
1592;DHT22;789;51.612;7.510;2024-01-10T02:04:09;-3.20;1.00
1592;DHT22;789;51.612;7.510;2024-01-10T02:06:36;-3.20;1.00
1592;DHT22;789;51.612;7.510;2024-01-10T02:09:03;-3.30;1.00
1592;DHT22;789;51.612;7.510;2024-01-10T02:11:31;-3.30;1.00
1592;DHT22;789;51.612;7.510;2024-01-10T02:13:58;-3.30;1.00
1592;DHT22;789;51.612;7.510;2024-01-10T02:16:25;-3.30;1.00
1592;DHT22;789;51.612;7.510;2024-01-10T02:18:52;-3.40;1.00
1592;DHT22;789;51.612;7.510;2024-01-10T02:21:20;-3.10;1.00
1592;DHT22;789;51.612;7.510;2024-01-10T02:23:47;-3.40;1.00
1592;DHT22;789;51.612;7.510;2024-01-10T02:26:15;-3.40;1.00
1592;DHT22;789;51.612;7.510;2024-01-10T02:28:42;-3.40;1.00
1592;DHT22;789;51.612;7.510;2024-01-10T02:31:09;-3.50;1.00
1592;DHT22;789;51.612;7.510;2024-01-10T02:33:36;-3.40;1.00
1592;DHT22;789;51.612;7.510;2024-01-10T02:36:04;-3.40;1.00
1592;DHT22;789;51.612;7.510;2024-01-10T02:38:31;-3.40;1.00
1592;DHT22;789;51.612;7.510;2024-01-10T02:40:57;-3.30;1.00
1592;DHT22;789;51.612;7.510;2024-01-10T02:43:27;-3.50;1.00
1592;DHT22;789;51.612;7.510;2024-01-10T02:45:54;-3.50;1.00
1592;DHT22;789;51.612;7.510;2024-01-10T02:48:20;-3.50;1.00
1592;DHT22;789;51.612;7.510;2024-01-10T02:50:47;-3.50;1.00
1592;DHT22;789;51.612;7.510;2024-01-10T02:53:14;-3.50;1.00
1592;DHT22;789;51.612;7.510;2024-01-10T02:55:39;-3.40;1.00
1592;DHT22;789;51.612;7.510;2024-01-10T02:58:07;-3.50;1.00
1592;DHT22;789;51.612;7.510;2024-01-10T03:00:35;-3.50;1.00
1592;DHT22;789;51.612;7.510;2024-01-10T03:03:03;-3.50;1.00
1592;DHT22;789;51.612;7.510;2024-01-10T03:05:30;-3.50;1.00
1592;DHT22;789;51.612;7.510;2024-01-10T03:07:56;-3.50;1.00
1592;DHT22;789;51.612;7.510;2024-01-10T03:10:23;-3.50;1.00
1592;DHT22;789;51.612;7.510;2024-01-10T03:12:50;-3.60;1.00
1592;DHT22;789;51.612;7.510;2024-01-10T03:15:16;-3.60;1.00
1592;DHT22;789;51.612;7.510;2024-01-10T03:17:44;-3.50;1.00
1592;DHT22;789;51.612;7.510;2024-01-10T03:20:11;-3.30;1.00
1592;DHT22;789;51.612;7.510;2024-01-10T03:22:38;-3.60;1.00
1592;DHT22;789;51.612;7.510;2024-01-10T03:25:05;-3.50;1.00
1592;DHT22;789;51.612;7.510;2024-01-10T03:27:32;-3.50;1.00
1592;DHT22;789;51.612;7.510;2024-01-10T03:29:58;-3.50;1.00
1592;DHT22;789;51.612;7.510;2024-01-10T03:32:25;-3.60;1.00
1592;DHT22;789;51.612;7.510;2024-01-10T03:34:53;-3.60;1.00
1592;DHT22;789;51.612;7.510;2024-01-10T03:37:20;-3.30;1.00
1592;DHT22;789;51.612;7.510;2024-01-10T03:39:47;-3.60;1.00
1592;DHT22;789;51.612;7.510;2024-01-10T03:42:13;-3.70;1.00
1592;DHT22;789;51.612;7.510;2024-01-10T03:44:42;-3.50;1.00
1592;DHT22;789;51.612;7.510;2024-01-10T03:47:08;-3.80;1.00
1592;DHT22;789;51.612;7.510;2024-01-10T03:49:35;-3.80;1.00
1592;DHT22;789;51.612;7.510;2024-01-10T03:52:04;-3.70;1.00
1592;DHT22;789;51.612;7.510;2024-01-10T03:54:31;-3.70;1.00
1592;DHT22;789;51.612;7.510;2024-01-10T03:56:59;-3.70;1.00
1592;DHT22;789;51.612;7.510;2024-01-10T03:59:26;-3.70;1.00
1592;DHT22;789;51.612;7.510;2024-01-10T04:01:52;-3.70;1.00
1592;DHT22;789;51.612;7.510;2024-01-10T04:04:19;-3.00;1.00
1592;DHT22;789;51.612;7.510;2024-01-10T04:06:46;-3.70;1.00
1592;DHT22;789;51.612;7.510;2024-01-10T04:09:14;-3.70;1.00
1592;DHT22;789;51.612;7.510;2024-01-10T04:11:41;-3.70;1.00
1592;DHT22;789;51.612;7.510;2024-01-10T04:14:08;-3.70;1.00
1592;DHT22;789;51.612;7.510;2024-01-10T04:16:35;-3.70;1.00
1592;DHT22;789;51.612;7.510;2024-01-10T04:19:02;-3.70;1.00
1592;DHT22;789;51.612;7.510;2024-01-10T04:21:28;-3.70;1.00
1592;DHT22;789;51.612;7.510;2024-01-10T04:23:55;-3.70;1.00
1592;DHT22;789;51.612;7.510;2024-01-10T04:26:23;-3.60;1.00
1592;DHT22;789;51.612;7.510;2024-01-10T04:28:50;-3.50;1.00
1592;DHT22;789;51.612;7.510;2024-01-10T04:31:17;-3.60;1.00
1592;DHT22;789;51.612;7.510;2024-01-10T04:33:44;-3.20;1.00
1592;DHT22;789;51.612;7.510;2024-01-10T04:36:11;-3.60;1.00
1592;DHT22;789;51.612;7.510;2024-01-10T04:38:37;-3.70;1.00
1592;DHT22;789;51.612;7.510;2024-01-10T04:41:04;-3.50;1.00
1592;DHT22;789;51.612;7.510;2024-01-10T04:43:32;-3.60;1.00
1592;DHT22;789;51.612;7.510;2024-01-10T04:45:58;-3.60;1.00
1592;DHT22;789;51.612;7.510;2024-01-10T04:48:25;-3.50;1.00
1592;DHT22;789;51.612;7.510;2024-01-10T04:50:52;-3.30;1.00
1592;DHT22;789;51.612;7.510;2024-01-10T04:53:19;-3.30;1.00
1592;DHT22;789;51.612;7.510;2024-01-10T04:55:45;-3.60;1.00
1592;DHT22;789;51.612;7.510;2024-01-10T04:58:12;-3.50;1.00
1592;DHT22;789;51.612;7.510;2024-01-10T05:00:40;-3.50;1.00
1592;DHT22;789;51.612;7.510;2024-01-10T05:03:07;-3.50;1.00
1592;DHT22;789;51.612;7.510;2024-01-10T05:05:34;-3.60;1.00
1592;DHT22;789;51.612;7.510;2024-01-10T05:08:00;-3.50;1.00
1592;DHT22;789;51.612;7.510;2024-01-10T05:10:27;-3.60;1.00
1592;DHT22;789;51.612;7.510;2024-01-10T05:12:54;-3.60;1.00
1592;DHT22;789;51.612;7.510;2024-01-10T05:15:21;-3.60;1.00
1592;DHT22;789;51.612;7.510;2024-01-10T05:17:49;-3.60;1.00
1592;DHT22;789;51.612;7.510;2024-01-10T05:20:16;-3.60;1.00
1592;DHT22;789;51.612;7.510;2024-01-10T05:22:43;-3.50;1.00
1592;DHT22;789;51.612;7.510;2024-01-10T05:25:10;-3.50;1.00
1592;DHT22;789;51.612;7.510;2024-01-10T05:27:37;-2.90;1.00
1592;DHT22;789;51.612;7.510;2024-01-10T05:30:04;-3.60;1.00
1592;DHT22;789;51.612;7.510;2024-01-10T05:32:31;-3.50;1.00
1592;DHT22;789;51.612;7.510;2024-01-10T05:34:59;-3.60;1.00
1592;DHT22;789;51.612;7.510;2024-01-10T05:37:26;-3.60;1.00
1592;DHT22;789;51.612;7.510;2024-01-10T05:39:52;-3.60;1.00
1592;DHT22;789;51.612;7.510;2024-01-10T05:42:19;-3.70;1.00
1592;DHT22;789;51.612;7.510;2024-01-10T05:44:46;-3.70;1.00
1592;DHT22;789;51.612;7.510;2024-01-10T05:47:12;-3.70;1.00
1592;DHT22;789;51.612;7.510;2024-01-10T05:49:40;-3.70;1.00
1592;DHT22;789;51.612;7.510;2024-01-10T05:52:09;-3.70;1.00
1592;DHT22;789;51.612;7.510;2024-01-10T05:54:36;-3.80;1.00
1592;DHT22;789;51.612;7.510;2024-01-10T05:57:03;-3.80;1.00
1592;DHT22;789;51.612;7.510;2024-01-10T05:59:30;-3.80;1.00
1592;DHT22;789;51.612;7.510;2024-01-10T06:01:56;-3.90;1.00
1592;DHT22;789;51.612;7.510;2024-01-10T06:04:24;-3.90;1.00
1592;DHT22;789;51.612;7.510;2024-01-10T06:06:51;-3.90;1.00
1592;DHT22;789;51.612;7.510;2024-01-10T06:09:19;-3.90;1.00
1592;DHT22;789;51.612;7.510;2024-01-10T06:11:47;-3.80;1.00
1592;DHT22;789;51.612;7.510;2024-01-10T06:14:14;-3.90;1.00
1592;DHT22;789;51.612;7.510;2024-01-10T06:16:41;-3.90;1.00
1592;DHT22;789;51.612;7.510;2024-01-10T06:19:07;-3.90;1.00
1592;DHT22;789;51.612;7.510;2024-01-10T06:21:35;-3.90;1.00
1592;DHT22;789;51.612;7.510;2024-01-10T06:24:02;-3.90;1.00
1592;DHT22;789;51.612;7.510;2024-01-10T06:26:30;-3.90;1.00
1592;DHT22;789;51.612;7.510;2024-01-10T06:28:57;-3.90;1.00
1592;DHT22;789;51.612;7.510;2024-01-10T06:31:24;-3.90;1.00
1592;DHT22;789;51.612;7.510;2024-01-10T06:33:51;-4.00;1.00
1592;DHT22;789;51.612;7.510;2024-01-10T06:36:18;-3.90;1.00
1592;DHT22;789;51.612;7.510;2024-01-10T06:38:44;-3.90;1.00
1592;DHT22;789;51.612;7.510;2024-01-10T06:41:13;-3.90;1.00
1592;DHT22;789;51.612;7.510;2024-01-10T06:43:41;-3.90;1.00
1592;DHT22;789;51.612;7.510;2024-01-10T06:46:08;-3.90;1.00
1592;DHT22;789;51.612;7.510;2024-01-10T06:48:35;-3.60;1.00
1592;DHT22;789;51.612;7.510;2024-01-10T06:51:02;-3.80;1.00
1592;DHT22;789;51.612;7.510;2024-01-10T06:53:29;-3.80;1.00
1592;DHT22;789;51.612;7.510;2024-01-10T06:55:56;-3.80;1.00
1592;DHT22;789;51.612;7.510;2024-01-10T06:58:23;-3.80;1.00
1592;DHT22;789;51.612;7.510;2024-01-10T07:00:51;-3.80;1.00
1592;DHT22;789;51.612;7.510;2024-01-10T07:03:18;-3.60;1.00
1592;DHT22;789;51.612;7.510;2024-01-10T07:05:45;-3.70;1.00
1592;DHT22;789;51.612;7.510;2024-01-10T07:08:11;-3.70;1.00
1592;DHT22;789;51.612;7.510;2024-01-10T07:10:38;-3.70;1.00
1592;DHT22;789;51.612;7.510;2024-01-10T07:13:05;-3.60;1.00
1592;DHT22;789;51.612;7.510;2024-01-10T07:15:32;-3.60;1.00
1592;DHT22;789;51.612;7.510;2024-01-10T07:18:00;-3.60;1.00
1592;DHT22;789;51.612;7.510;2024-01-10T07:20:27;-3.50;1.00
1592;DHT22;789;51.612;7.510;2024-01-10T07:22:54;-3.50;1.00
1592;DHT22;789;51.612;7.510;2024-01-10T07:25:21;-3.50;1.00
1592;DHT22;789;51.612;7.510;2024-01-10T07:27:50;-3.50;1.00
1592;DHT22;789;51.612;7.510;2024-01-10T07:30:17;-3.40;1.00
1592;DHT22;789;51.612;7.510;2024-01-10T07:32:47;-3.50;1.00
1592;DHT22;789;51.612;7.510;2024-01-10T07:35:15;-3.40;1.00
1592;DHT22;789;51.612;7.510;2024-01-10T07:37:42;-3.40;1.00
1592;DHT22;789;51.612;7.510;2024-01-10T07:40:10;-3.40;1.00
1592;DHT22;789;51.612;7.510;2024-01-10T07:42:38;-3.50;1.00
1592;DHT22;789;51.612;7.510;2024-01-10T07:45:06;-3.50;1.00
1592;DHT22;789;51.612;7.510;2024-01-10T07:47:34;-3.50;1.00
1592;DHT22;789;51.612;7.510;2024-01-10T07:50:04;-3.50;1.00
1592;DHT22;789;51.612;7.510;2024-01-10T07:52:32;-3.50;1.00
1592;DHT22;789;51.612;7.510;2024-01-10T07:54:59;-3.40;1.00
1592;DHT22;789;51.612;7.510;2024-01-10T07:57:26;-3.50;1.00
1592;DHT22;789;51.612;7.510;2024-01-10T07:59:53;-3.50;1.00
1592;DHT22;789;51.612;7.510;2024-01-10T08:02:20;-3.40;1.00
1592;DHT22;789;51.612;7.510;2024-01-10T08:04:47;-3.40;1.00
1592;DHT22;789;51.612;7.510;2024-01-10T08:07:14;-3.30;1.00
1592;DHT22;789;51.612;7.510;2024-01-10T08:09:42;-3.30;1.00
1592;DHT22;789;51.612;7.510;2024-01-10T08:12:09;-3.20;1.00
1592;DHT22;789;51.612;7.510;2024-01-10T08:14:37;-3.20;1.00
1592;DHT22;789;51.612;7.510;2024-01-10T08:17:04;-3.20;1.00
1592;DHT22;789;51.612;7.510;2024-01-10T08:19:32;-3.10;1.00
1592;DHT22;789;51.612;7.510;2024-01-10T08:21:58;-3.10;1.00
1592;DHT22;789;51.612;7.510;2024-01-10T08:24:25;-3.10;1.00
1592;DHT22;789;51.612;7.510;2024-01-10T08:26:53;-3.00;1.00
1592;DHT22;789;51.612;7.510;2024-01-10T08:29:20;-3.10;1.00
1592;DHT22;789;51.612;7.510;2024-01-10T08:31:48;-2.80;1.00
1592;DHT22;789;51.612;7.510;2024-01-10T08:34:14;-2.20;1.00
1592;DHT22;789;51.612;7.510;2024-01-10T08:36:41;-1.50;1.00
1592;DHT22;789;51.612;7.510;2024-01-10T08:39:08;-0.80;1.00
1592;DHT22;789;51.612;7.510;2024-01-10T08:41:36;-0.20;1.00
1592;DHT22;789;51.612;7.510;2024-01-10T08:46:45;0.90;1.00
1592;DHT22;789;51.612;7.510;2024-01-10T08:49:12;1.30;1.00
1592;DHT22;789;51.612;7.510;2024-01-10T08:51:38;1.50;1.00
1592;DHT22;789;51.612;7.510;2024-01-10T08:54:06;1.70;1.00
1592;DHT22;789;51.612;7.510;2024-01-10T08:56:33;2.10;1.00
1592;DHT22;789;51.612;7.510;2024-01-10T08:59:00;2.50;1.00
1592;DHT22;789;51.612;7.510;2024-01-10T09:01:27;2.70;1.00
1592;DHT22;789;51.612;7.510;2024-01-10T09:03:55;2.40;1.00
1592;DHT22;789;51.612;7.510;2024-01-10T09:06:22;2.40;1.00
1592;DHT22;789;51.612;7.510;2024-01-10T09:08:49;2.60;1.00
1592;DHT22;789;51.612;7.510;2024-01-10T09:11:15;3.40;1.00
1592;DHT22;789;51.612;7.510;2024-01-10T09:13:42;4.10;1.00
1592;DHT22;789;51.612;7.510;2024-01-10T09:16:09;4.60;1.00
1592;DHT22;789;51.612;7.510;2024-01-10T09:18:36;5.20;1.00
1592;DHT22;789;51.612;7.510;2024-01-10T09:21:05;6.00;1.00
1592;DHT22;789;51.612;7.510;2024-01-10T09:23:32;6.80;1.00
1592;DHT22;789;51.612;7.510;2024-01-10T09:25:59;7.60;1.00
1592;DHT22;789;51.612;7.510;2024-01-10T09:28:26;8.10;1.00
1592;DHT22;789;51.612;7.510;2024-01-10T09:30:53;8.60;1.00
1592;DHT22;789;51.612;7.510;2024-01-10T09:33:20;9.10;1.00
1592;DHT22;789;51.612;7.510;2024-01-10T09:35:48;9.50;1.00
1592;DHT22;789;51.612;7.510;2024-01-10T09:38:16;10.00;1.00
1592;DHT22;789;51.612;7.510;2024-01-10T09:40:43;10.20;1.00
1592;DHT22;789;51.612;7.510;2024-01-10T09:43:10;10.60;1.00
1592;DHT22;789;51.612;7.510;2024-01-10T09:45:43;10.90;1.00
1592;DHT22;789;51.612;7.510;2024-01-10T09:48:13;11.20;1.00
1592;DHT22;789;51.612;7.510;2024-01-10T09:50:41;11.10;1.00
1592;DHT22;789;51.612;7.510;2024-01-10T09:53:19;11.30;1.00
1592;DHT22;789;51.612;7.510;2024-01-10T09:55:48;10.90;1.00
1592;DHT22;789;51.612;7.510;2024-01-10T09:58:15;10.60;1.00
1592;DHT22;789;51.612;7.510;2024-01-10T10:00:42;10.40;1.00
1592;DHT22;789;51.612;7.510;2024-01-10T10:03:09;10.20;1.00
1592;DHT22;789;51.612;7.510;2024-01-10T10:05:37;10.40;1.00
1592;DHT22;789;51.612;7.510;2024-01-10T10:08:06;10.90;1.00
1592;DHT22;789;51.612;7.510;2024-01-10T10:10:37;11.40;1.00
1592;DHT22;789;51.612;7.510;2024-01-10T10:13:08;11.60;1.00
1592;DHT22;789;51.612;7.510;2024-01-10T10:15:36;11.60;1.00
1592;DHT22;789;51.612;7.510;2024-01-10T10:18:03;11.50;1.00
1592;DHT22;789;51.612;7.510;2024-01-10T10:20:31;11.30;1.00
1592;DHT22;789;51.612;7.510;2024-01-10T10:22:59;11.10;1.00
1592;DHT22;789;51.612;7.510;2024-01-10T10:25:28;11.20;1.00
1592;DHT22;789;51.612;7.510;2024-01-10T10:27:57;11.50;1.00
1592;DHT22;789;51.612;7.510;2024-01-10T10:30:24;12.10;1.00
1592;DHT22;789;51.612;7.510;2024-01-10T10:32:51;12.30;1.00
1592;DHT22;789;51.612;7.510;2024-01-10T10:35:19;12.80;1.00
1592;DHT22;789;51.612;7.510;2024-01-10T10:37:47;13.10;1.00
1592;DHT22;789;51.612;7.510;2024-01-10T10:40:14;13.60;1.00
1592;DHT22;789;51.612;7.510;2024-01-10T10:42:44;13.80;1.00
1592;DHT22;789;51.612;7.510;2024-01-10T10:45:15;14.30;1.00
1592;DHT22;789;51.612;7.510;2024-01-10T10:47:44;14.70;1.00
1592;DHT22;789;51.612;7.510;2024-01-10T10:50:13;14.20;1.00
1592;DHT22;789;51.612;7.510;2024-01-10T10:52:44;14.10;1.00
1592;DHT22;789;51.612;7.510;2024-01-10T10:55:14;13.80;1.00
1592;DHT22;789;51.612;7.510;2024-01-10T10:57:42;13.70;1.00
1592;DHT22;789;51.612;7.510;2024-01-10T11:00:13;13.60;1.00
1592;DHT22;789;51.612;7.510;2024-01-10T11:02:42;13.40;1.00
1592;DHT22;789;51.612;7.510;2024-01-10T11:05:10;13.60;1.00
1592;DHT22;789;51.612;7.510;2024-01-10T11:07:37;13.80;1.00
1592;DHT22;789;51.612;7.510;2024-01-10T11:10:08;14.00;1.00
1592;DHT22;789;51.612;7.510;2024-01-10T11:12:50;14.40;1.00
1592;DHT22;789;51.612;7.510;2024-01-10T11:15:34;15.00;1.00
1592;DHT22;789;51.612;7.510;2024-01-10T11:18:28;14.50;1.00
1592;DHT22;789;51.612;7.510;2024-01-10T11:21:11;14.60;1.00
1592;DHT22;789;51.612;7.510;2024-01-10T11:23:43;14.50;1.00
1592;DHT22;789;51.612;7.510;2024-01-10T11:26:11;14.70;1.00
1592;DHT22;789;51.612;7.510;2024-01-10T11:28:40;14.30;1.00
1592;DHT22;789;51.612;7.510;2024-01-10T11:31:08;14.50;1.00
1592;DHT22;789;51.612;7.510;2024-01-10T11:33:36;13.70;1.00
1592;DHT22;789;51.612;7.510;2024-01-10T11:36:13;13.80;1.00
1592;DHT22;789;51.612;7.510;2024-01-10T11:39:09;13.80;1.00
1592;DHT22;789;51.612;7.510;2024-01-10T11:41:39;13.80;1.00
1592;DHT22;789;51.612;7.510;2024-01-10T11:44:28;14.30;1.00
1592;DHT22;789;51.612;7.510;2024-01-10T11:46:58;14.60;1.00
1592;DHT22;789;51.612;7.510;2024-01-10T11:49:26;15.30;1.00
1592;DHT22;789;51.612;7.510;2024-01-10T11:51:55;15.10;1.00
1592;DHT22;789;51.612;7.510;2024-01-10T11:54:43;15.20;1.00
1592;DHT22;789;51.612;7.510;2024-01-10T11:57:11;15.30;1.00
1592;DHT22;789;51.612;7.510;2024-01-10T11:59:38;15.70;1.00
1592;DHT22;789;51.612;7.510;2024-01-10T12:02:07;15.70;1.00
1592;DHT22;789;51.612;7.510;2024-01-10T12:04:34;16.10;1.00
1592;DHT22;789;51.612;7.510;2024-01-10T12:07:02;15.80;1.00
1592;DHT22;789;51.612;7.510;2024-01-10T12:09:29;15.70;1.00
1592;DHT22;789;51.612;7.510;2024-01-10T12:11:56;15.70;1.00
1592;DHT22;789;51.612;7.510;2024-01-10T12:14:23;15.60;1.00
1592;DHT22;789;51.612;7.510;2024-01-10T12:16:51;15.90;1.00
1592;DHT22;789;51.612;7.510;2024-01-10T12:19:19;15.30;1.00
1592;DHT22;789;51.612;7.510;2024-01-10T12:21:45;15.30;1.00
1592;DHT22;789;51.612;7.510;2024-01-10T12:24:13;15.80;1.00
1592;DHT22;789;51.612;7.510;2024-01-10T12:26:43;15.90;1.00
1592;DHT22;789;51.612;7.510;2024-01-10T12:29:11;17.00;1.00
1592;DHT22;789;51.612;7.510;2024-01-10T12:31:38;17.00;1.00
1592;DHT22;789;51.612;7.510;2024-01-10T12:34:07;17.40;1.00
1592;DHT22;789;51.612;7.510;2024-01-10T12:36:35;18.20;1.00
1592;DHT22;789;51.612;7.510;2024-01-10T12:39:02;17.70;1.00
1592;DHT22;789;51.612;7.510;2024-01-10T12:41:29;18.10;1.00
1592;DHT22;789;51.612;7.510;2024-01-10T12:43:56;18.50;1.00
1592;DHT22;789;51.612;7.510;2024-01-10T12:46:27;18.50;1.00
1592;DHT22;789;51.612;7.510;2024-01-10T12:49:01;18.40;1.00
1592;DHT22;789;51.612;7.510;2024-01-10T12:51:29;18.20;1.00
1592;DHT22;789;51.612;7.510;2024-01-10T12:53:58;18.00;1.00
1592;DHT22;789;51.612;7.510;2024-01-10T12:56:25;17.50;1.00
1592;DHT22;789;51.612;7.510;2024-01-10T12:58:53;17.00;1.00
1592;DHT22;789;51.612;7.510;2024-01-10T13:01:21;17.00;1.00
1592;DHT22;789;51.612;7.510;2024-01-10T13:03:48;17.10;1.00
1592;DHT22;789;51.612;7.510;2024-01-10T13:06:15;17.20;1.00
1592;DHT22;789;51.612;7.510;2024-01-10T13:08:42;16.90;1.00
1592;DHT22;789;51.612;7.510;2024-01-10T13:11:11;16.80;1.00
1592;DHT22;789;51.612;7.510;2024-01-10T13:13:39;16.10;1.00
1592;DHT22;789;51.612;7.510;2024-01-10T13:16:06;15.20;1.00
1592;DHT22;789;51.612;7.510;2024-01-10T13:18:36;13.60;1.00
1592;DHT22;789;51.612;7.510;2024-01-10T13:21:02;11.90;1.00
1592;DHT22;789;51.612;7.510;2024-01-10T13:23:29;10.40;1.00
1592;DHT22;789;51.612;7.510;2024-01-10T13:25:56;9.10;1.00
1592;DHT22;789;51.612;7.510;2024-01-10T13:28:26;8.00;1.00
1592;DHT22;789;51.612;7.510;2024-01-10T13:30:53;7.10;1.00
1592;DHT22;789;51.612;7.510;2024-01-10T13:33:21;6.40;1.00
1592;DHT22;789;51.612;7.510;2024-01-10T13:35:48;5.70;1.00
1592;DHT22;789;51.612;7.510;2024-01-10T13:38:15;5.30;1.00
1592;DHT22;789;51.612;7.510;2024-01-10T13:40:42;5.00;1.00
1592;DHT22;789;51.612;7.510;2024-01-10T13:43:09;4.60;1.00
1592;DHT22;789;51.612;7.510;2024-01-10T13:45:37;4.40;1.00
1592;DHT22;789;51.612;7.510;2024-01-10T13:48:04;4.20;1.00
1592;DHT22;789;51.612;7.510;2024-01-10T13:50:31;4.00;1.00
1592;DHT22;789;51.612;7.510;2024-01-10T13:52:58;3.80;1.00
1592;DHT22;789;51.612;7.510;2024-01-10T13:55:25;3.60;1.00
1592;DHT22;789;51.612;7.510;2024-01-10T13:57:51;3.40;1.00
1592;DHT22;789;51.612;7.510;2024-01-10T14:00:19;3.30;1.00
1592;DHT22;789;51.612;7.510;2024-01-10T14:02:48;3.20;1.00
1592;DHT22;789;51.612;7.510;2024-01-10T14:05:15;3.40;1.00
1592;DHT22;789;51.612;7.510;2024-01-10T14:07:42;3.00;1.00
1592;DHT22;789;51.612;7.510;2024-01-10T14:10:12;3.00;1.00
1592;DHT22;789;51.612;7.510;2024-01-10T14:12:38;2.90;1.00
1592;DHT22;789;51.612;7.510;2024-01-10T14:15:06;3.30;1.00
1592;DHT22;789;51.612;7.510;2024-01-10T14:17:33;2.90;1.00
1592;DHT22;789;51.612;7.510;2024-01-10T14:20:02;2.80;1.00
1592;DHT22;789;51.612;7.510;2024-01-10T14:22:29;2.80;1.00
1592;DHT22;789;51.612;7.510;2024-01-10T14:24:55;2.80;1.00
1592;DHT22;789;51.612;7.510;2024-01-10T14:27:22;2.80;1.00
1592;DHT22;789;51.612;7.510;2024-01-10T14:29:50;2.70;1.00
1592;DHT22;789;51.612;7.510;2024-01-10T14:32:17;2.70;1.00
1592;DHT22;789;51.612;7.510;2024-01-10T14:34:43;2.70;1.00
1592;DHT22;789;51.612;7.510;2024-01-10T14:37:13;2.60;1.00
1592;DHT22;789;51.612;7.510;2024-01-10T14:39:39;2.60;1.00
1592;DHT22;789;51.612;7.510;2024-01-10T14:42:07;2.60;1.00
1592;DHT22;789;51.612;7.510;2024-01-10T14:44:34;2.60;1.00
1592;DHT22;789;51.612;7.510;2024-01-10T14:47:02;2.60;1.00
1592;DHT22;789;51.612;7.510;2024-01-10T14:49:29;2.60;1.00
1592;DHT22;789;51.612;7.510;2024-01-10T14:51:57;2.60;1.00
1592;DHT22;789;51.612;7.510;2024-01-10T14:54:25;2.60;1.00
1592;DHT22;789;51.612;7.510;2024-01-10T14:56:51;2.60;1.00
1592;DHT22;789;51.612;7.510;2024-01-10T14:59:18;2.60;1.00
1592;DHT22;789;51.612;7.510;2024-01-10T15:01:45;3.20;1.00
1592;DHT22;789;51.612;7.510;2024-01-10T15:04:12;2.50;1.00
1592;DHT22;789;51.612;7.510;2024-01-10T15:06:43;2.50;1.00
1592;DHT22;789;51.612;7.510;2024-01-10T15:09:10;2.60;1.00
1592;DHT22;789;51.612;7.510;2024-01-10T15:11:39;2.50;1.00
1592;DHT22;789;51.612;7.510;2024-01-10T15:14:07;2.50;1.00
1592;DHT22;789;51.612;7.510;2024-01-10T15:16:34;2.40;1.00
1592;DHT22;789;51.612;7.510;2024-01-10T15:19:01;2.30;1.00
1592;DHT22;789;51.612;7.510;2024-01-10T15:21:28;2.30;1.00
1592;DHT22;789;51.612;7.510;2024-01-10T15:23:55;2.20;1.00
1592;DHT22;789;51.612;7.510;2024-01-10T15:26:22;2.20;1.00
1592;DHT22;789;51.612;7.510;2024-01-10T15:28:50;2.10;1.00
1592;DHT22;789;51.612;7.510;2024-01-10T15:31:19;2.00;1.00
1592;DHT22;789;51.612;7.510;2024-01-10T15:33:47;2.00;1.00
1592;DHT22;789;51.612;7.510;2024-01-10T15:36:14;1.90;1.00
1592;DHT22;789;51.612;7.510;2024-01-10T15:38:41;1.80;1.00
1592;DHT22;789;51.612;7.510;2024-01-10T15:41:08;1.80;1.00
1592;DHT22;789;51.612;7.510;2024-01-10T15:43:36;2.10;1.00
1592;DHT22;789;51.612;7.510;2024-01-10T15:46:04;1.60;1.00
1592;DHT22;789;51.612;7.510;2024-01-10T15:48:32;1.60;1.00
1592;DHT22;789;51.612;7.510;2024-01-10T15:50:59;2.20;1.00
1592;DHT22;789;51.612;7.510;2024-01-10T15:53:25;1.70;1.00
1592;DHT22;789;51.612;7.510;2024-01-10T15:55:53;1.70;1.00
1592;DHT22;789;51.612;7.510;2024-01-10T15:58:21;1.60;1.00
1592;DHT22;789;51.612;7.510;2024-01-10T16:00:48;1.60;1.00
1592;DHT22;789;51.612;7.510;2024-01-10T16:03:17;1.60;1.00
1592;DHT22;789;51.612;7.510;2024-01-10T16:05:43;1.50;1.00
1592;DHT22;789;51.612;7.510;2024-01-10T16:08:10;1.40;1.00
1592;DHT22;789;51.612;7.510;2024-01-10T16:10:37;1.40;1.00
1592;DHT22;789;51.612;7.510;2024-01-10T16:13:05;1.30;1.00
1592;DHT22;789;51.612;7.510;2024-01-10T16:15:32;1.20;1.00
1592;DHT22;789;51.612;7.510;2024-01-10T16:17:59;1.20;1.00
1592;DHT22;789;51.612;7.510;2024-01-10T16:20:27;1.20;1.00
1592;DHT22;789;51.612;7.510;2024-01-10T16:22:53;1.10;1.00
1592;DHT22;789;51.612;7.510;2024-01-10T16:25:20;1.10;1.00
1592;DHT22;789;51.612;7.510;2024-01-10T16:27:47;1.00;1.00
1592;DHT22;789;51.612;7.510;2024-01-10T16:30:14;1.00;1.00
1592;DHT22;789;51.612;7.510;2024-01-10T16:32:41;1.00;1.00
1592;DHT22;789;51.612;7.510;2024-01-10T16:35:07;0.90;1.00
1592;DHT22;789;51.612;7.510;2024-01-10T16:37:36;0.90;1.00
1592;DHT22;789;51.612;7.510;2024-01-10T16:40:04;0.90;1.00
1592;DHT22;789;51.612;7.510;2024-01-10T16:42:31;0.80;1.00
1592;DHT22;789;51.612;7.510;2024-01-10T16:45:00;0.80;1.00